sensor_id;sensor_type;location;lat;lon;timestamp;P1;durP1;ratioP1;P2;durP2;ratioP2
51806;SDS011;37865;51.304;9.536;2023-07-13T00:01:03;3.58;;;1.85;;
51806;SDS011;37865;51.304;9.536;2023-07-13T00:03:29;9.98;;;1.63;;
51806;SDS011;37865;51.304;9.536;2023-07-13T00:06:00;4.13;;;1.90;;
51806;SDS011;37865;51.304;9.536;2023-07-13T00:08:26;5.82;;;2.40;;
51806;SDS011;37865;51.304;9.536;2023-07-13T00:10:52;14.60;;;1.55;;
51806;SDS011;37865;51.304;9.536;2023-07-13T00:13:19;6.38;;;2.20;;
51806;SDS011;37865;51.304;9.536;2023-07-13T00:15:45;7.95;;;1.75;;
51806;SDS011;37865;51.304;9.536;2023-07-13T00:18:10;3.90;;;1.80;;
51806;SDS011;37865;51.304;9.536;2023-07-13T00:20:35;7.50;;;2.53;;
51806;SDS011;37865;51.304;9.536;2023-07-13T00:23:00;4.97;;;1.90;;
51806;SDS011;37865;51.304;9.536;2023-07-13T00:25:26;7.10;;;2.20;;
51806;SDS011;37865;51.304;9.536;2023-07-13T00:27:53;7.35;;;2.45;;
51806;SDS011;37865;51.304;9.536;2023-07-13T00:30:18;5.38;;;1.77;;
51806;SDS011;37865;51.304;9.536;2023-07-13T00:32:44;3.60;;;1.90;;
51806;SDS011;37865;51.304;9.536;2023-07-13T00:35:09;2.78;;;1.65;;
51806;SDS011;37865;51.304;9.536;2023-07-13T00:37:35;3.33;;;1.83;;
51806;SDS011;37865;51.304;9.536;2023-07-13T00:40:04;5.90;;;1.85;;
51806;SDS011;37865;51.304;9.536;2023-07-13T00:42:32;7.10;;;2.47;;
51806;SDS011;37865;51.304;9.536;2023-07-13T00:45:01;7.68;;;2.60;;
51806;SDS011;37865;51.304;9.536;2023-07-13T00:47:39;4.63;;;1.77;;
51806;SDS011;37865;51.304;9.536;2023-07-13T00:50:06;5.70;;;1.90;;
51806;SDS011;37865;51.304;9.536;2023-07-13T00:52:35;2.83;;;1.80;;
51806;SDS011;37865;51.304;9.536;2023-07-13T00:55:02;8.65;;;1.73;;
51806;SDS011;37865;51.304;9.536;2023-07-13T00:57:28;7.57;;;1.95;;
51806;SDS011;37865;51.304;9.536;2023-07-13T00:59:55;2.70;;;1.70;;
51806;SDS011;37865;51.304;9.536;2023-07-13T01:02:24;3.30;;;1.60;;
51806;SDS011;37865;51.304;9.536;2023-07-13T01:04:50;2.90;;;1.88;;
51806;SDS011;37865;51.304;9.536;2023-07-13T01:07:15;6.85;;;1.98;;
51806;SDS011;37865;51.304;9.536;2023-07-13T01:09:43;9.13;;;1.88;;
51806;SDS011;37865;51.304;9.536;2023-07-13T01:12:10;7.30;;;1.75;;
51806;SDS011;37865;51.304;9.536;2023-07-13T01:14:36;9.90;;;2.75;;
51806;SDS011;37865;51.304;9.536;2023-07-13T01:17:01;6.03;;;2.38;;
51806;SDS011;37865;51.304;9.536;2023-07-13T01:22:22;6.15;;;2.28;;
51806;SDS011;37865;51.304;9.536;2023-07-13T01:24:51;8.60;;;1.67;;
51806;SDS011;37865;51.304;9.536;2023-07-13T01:27:22;6.22;;;1.75;;
51806;SDS011;37865;51.304;9.536;2023-07-13T01:29:50;5.70;;;2.33;;
51806;SDS011;37865;51.304;9.536;2023-07-13T01:32:19;5.20;;;2.60;;
51806;SDS011;37865;51.304;9.536;2023-07-13T01:34:49;3.13;;;1.65;;
51806;SDS011;37865;51.304;9.536;2023-07-13T01:37:15;5.40;;;2.35;;
51806;SDS011;37865;51.304;9.536;2023-07-13T01:39:41;4.78;;;2.28;;
51806;SDS011;37865;51.304;9.536;2023-07-13T01:42:06;2.95;;;2.05;;
51806;SDS011;37865;51.304;9.536;2023-07-13T01:44:31;2.72;;;1.85;;
51806;SDS011;37865;51.304;9.536;2023-07-13T01:46:57;6.43;;;2.90;;
51806;SDS011;37865;51.304;9.536;2023-07-13T01:49:23;3.60;;;2.45;;
51806;SDS011;37865;51.304;9.536;2023-07-13T01:51:48;2.58;;;1.60;;
51806;SDS011;37865;51.304;9.536;2023-07-13T01:54:14;5.43;;;2.63;;
51806;SDS011;37865;51.304;9.536;2023-07-13T01:56:39;7.35;;;2.38;;
51806;SDS011;37865;51.304;9.536;2023-07-13T01:59:06;2.95;;;2.25;;
51806;SDS011;37865;51.304;9.536;2023-07-13T02:01:32;2.38;;;2.00;;
51806;SDS011;37865;51.304;9.536;2023-07-13T02:03:57;5.88;;;2.15;;
51806;SDS011;37865;51.304;9.536;2023-07-13T02:06:22;3.33;;;2.20;;
51806;SDS011;37865;51.304;9.536;2023-07-13T02:08:48;3.55;;;1.83;;
51806;SDS011;37865;51.304;9.536;2023-07-13T02:11:13;4.60;;;2.47;;
51806;SDS011;37865;51.304;9.536;2023-07-13T02:13:38;5.97;;;2.03;;
51806;SDS011;37865;51.304;9.536;2023-07-13T02:16:04;6.43;;;2.88;;
51806;SDS011;37865;51.304;9.536;2023-07-13T02:18:29;3.83;;;1.83;;
51806;SDS011;37865;51.304;9.536;2023-07-13T02:20:55;2.28;;;1.85;;
51806;SDS011;37865;51.304;9.536;2023-07-13T02:23:20;3.03;;;1.88;;
51806;SDS011;37865;51.304;9.536;2023-07-13T02:25:46;5.40;;;2.85;;
51806;SDS011;37865;51.304;9.536;2023-07-13T02:28:11;6.03;;;2.60;;
51806;SDS011;37865;51.304;9.536;2023-07-13T02:30:36;6.70;;;2.22;;
51806;SDS011;37865;51.304;9.536;2023-07-13T02:33:03;3.05;;;1.98;;
51806;SDS011;37865;51.304;9.536;2023-07-13T02:35:28;5.30;;;2.45;;
51806;SDS011;37865;51.304;9.536;2023-07-13T02:37:54;4.93;;;2.38;;
51806;SDS011;37865;51.304;9.536;2023-07-13T02:40:22;2.60;;;2.13;;
51806;SDS011;37865;51.304;9.536;2023-07-13T02:42:47;8.05;;;2.13;;
51806;SDS011;37865;51.304;9.536;2023-07-13T02:45:12;3.97;;;2.25;;
51806;SDS011;37865;51.304;9.536;2023-07-13T02:47:39;7.22;;;2.72;;
51806;SDS011;37865;51.304;9.536;2023-07-13T02:50:05;4.53;;;2.75;;
51806;SDS011;37865;51.304;9.536;2023-07-13T02:52:31;3.47;;;2.30;;
51806;SDS011;37865;51.304;9.536;2023-07-13T02:54:56;7.30;;;3.13;;
51806;SDS011;37865;51.304;9.536;2023-07-13T02:57:21;4.50;;;2.78;;
51806;SDS011;37865;51.304;9.536;2023-07-13T02:59:47;5.75;;;2.95;;
51806;SDS011;37865;51.304;9.536;2023-07-13T03:02:12;8.98;;;2.80;;
51806;SDS011;37865;51.304;9.536;2023-07-13T03:04:38;2.05;;;1.55;;
51806;SDS011;37865;51.304;9.536;2023-07-13T03:07:04;6.05;;;2.60;;
51806;SDS011;37865;51.304;9.536;2023-07-13T03:09:31;4.50;;;2.85;;
51806;SDS011;37865;51.304;9.536;2023-07-13T03:11:58;13.05;;;2.88;;
51806;SDS011;37865;51.304;9.536;2023-07-13T03:14:23;9.35;;;3.08;;
51806;SDS011;37865;51.304;9.536;2023-07-13T03:16:48;5.18;;;3.05;;
51806;SDS011;37865;51.304;9.536;2023-07-13T03:19:14;12.07;;;3.88;;
51806;SDS011;37865;51.304;9.536;2023-07-13T03:21:40;4.47;;;2.45;;
51806;SDS011;37865;51.304;9.536;2023-07-13T03:24:05;3.33;;;2.80;;
51806;SDS011;37865;51.304;9.536;2023-07-13T03:26:31;8.65;;;2.53;;
51806;SDS011;37865;51.304;9.536;2023-07-13T03:28:56;3.80;;;2.20;;
51806;SDS011;37865;51.304;9.536;2023-07-13T03:31:24;3.95;;;2.60;;
51806;SDS011;37865;51.304;9.536;2023-07-13T03:33:51;8.00;;;3.88;;
51806;SDS011;37865;51.304;9.536;2023-07-13T03:36:20;8.63;;;3.00;;
51806;SDS011;37865;51.304;9.536;2023-07-13T03:38:48;16.35;;;3.17;;
51806;SDS011;37865;51.304;9.536;2023-07-13T03:41:16;7.68;;;3.25;;
51806;SDS011;37865;51.304;9.536;2023-07-13T03:43:42;6.30;;;3.10;;
51806;SDS011;37865;51.304;9.536;2023-07-13T03:46:08;6.10;;;2.92;;
51806;SDS011;37865;51.304;9.536;2023-07-13T03:48:34;5.30;;;2.75;;
51806;SDS011;37865;51.304;9.536;2023-07-13T03:50:59;7.07;;;3.30;;
51806;SDS011;37865;51.304;9.536;2023-07-13T03:53:25;3.85;;;3.45;;
51806;SDS011;37865;51.304;9.536;2023-07-13T03:55:50;4.88;;;2.72;;
51806;SDS011;37865;51.304;9.536;2023-07-13T03:58:32;7.57;;;3.53;;
51806;SDS011;37865;51.304;9.536;2023-07-13T04:01:08;9.00;;;4.10;;
51806;SDS011;37865;51.304;9.536;2023-07-13T04:03:34;6.40;;;3.08;;
51806;SDS011;37865;51.304;9.536;2023-07-13T04:06:01;4.45;;;3.33;;
51806;SDS011;37865;51.304;9.536;2023-07-13T04:08:29;13.88;;;3.75;;
51806;SDS011;37865;51.304;9.536;2023-07-13T04:10:56;6.75;;;3.88;;
51806;SDS011;37865;51.304;9.536;2023-07-13T04:13:22;11.88;;;3.35;;
51806;SDS011;37865;51.304;9.536;2023-07-13T04:15:48;9.63;;;3.47;;
51806;SDS011;37865;51.304;9.536;2023-07-13T04:18:13;4.00;;;3.05;;
51806;SDS011;37865;51.304;9.536;2023-07-13T04:20:39;3.47;;;2.85;;
51806;SDS011;37865;51.304;9.536;2023-07-13T04:23:04;5.70;;;3.15;;
51806;SDS011;37865;51.304;9.536;2023-07-13T04:25:29;11.45;;;4.10;;
51806;SDS011;37865;51.304;9.536;2023-07-13T04:27:55;9.43;;;3.38;;
51806;SDS011;37865;51.304;9.536;2023-07-13T04:30:21;10.10;;;3.80;;
51806;SDS011;37865;51.304;9.536;2023-07-13T04:32:47;5.50;;;3.47;;
51806;SDS011;37865;51.304;9.536;2023-07-13T04:35:13;13.63;;;2.80;;
51806;SDS011;37865;51.304;9.536;2023-07-13T04:37:39;6.00;;;3.08;;
51806;SDS011;37865;51.304;9.536;2023-07-13T04:40:05;6.32;;;3.50;;
51806;SDS011;37865;51.304;9.536;2023-07-13T04:42:31;8.63;;;3.22;;
51806;SDS011;37865;51.304;9.536;2023-07-13T04:44:56;6.05;;;2.63;;
51806;SDS011;37865;51.304;9.536;2023-07-13T04:47:21;15.93;;;2.78;;
51806;SDS011;37865;51.304;9.536;2023-07-13T04:49:47;13.95;;;3.17;;
51806;SDS011;37865;51.304;9.536;2023-07-13T04:52:12;7.25;;;2.55;;
51806;SDS011;37865;51.304;9.536;2023-07-13T04:54:38;12.07;;;3.35;;
51806;SDS011;37865;51.304;9.536;2023-07-13T04:57:04;6.30;;;3.65;;
51806;SDS011;37865;51.304;9.536;2023-07-13T04:59:33;9.02;;;3.13;;
51806;SDS011;37865;51.304;9.536;2023-07-13T05:01:59;4.32;;;2.20;;
51806;SDS011;37865;51.304;9.536;2023-07-13T05:04:24;7.07;;;2.40;;
51806;SDS011;37865;51.304;9.536;2023-07-13T05:06:49;4.07;;;2.38;;
51806;SDS011;37865;51.304;9.536;2023-07-13T05:09:15;4.78;;;3.20;;
51806;SDS011;37865;51.304;9.536;2023-07-13T05:11:40;3.95;;;2.67;;
51806;SDS011;37865;51.304;9.536;2023-07-13T05:14:06;5.93;;;2.28;;
51806;SDS011;37865;51.304;9.536;2023-07-13T05:16:31;5.70;;;2.10;;
51806;SDS011;37865;51.304;9.536;2023-07-13T05:18:57;5.25;;;2.67;;
51806;SDS011;37865;51.304;9.536;2023-07-13T05:21:22;4.45;;;2.85;;
51806;SDS011;37865;51.304;9.536;2023-07-13T05:23:48;5.53;;;2.45;;
51806;SDS011;37865;51.304;9.536;2023-07-13T05:26:13;3.45;;;2.42;;
51806;SDS011;37865;51.304;9.536;2023-07-13T05:28:38;8.07;;;3.65;;
51806;SDS011;37865;51.304;9.536;2023-07-13T05:31:04;8.27;;;2.35;;
51806;SDS011;37865;51.304;9.536;2023-07-13T05:33:31;4.32;;;2.22;;
51806;SDS011;37865;51.304;9.536;2023-07-13T05:35:57;3.67;;;2.05;;
51806;SDS011;37865;51.304;9.536;2023-07-13T05:38:22;2.00;;;1.70;;
51806;SDS011;37865;51.304;9.536;2023-07-13T05:40:48;6.32;;;2.20;;
51806;SDS011;37865;51.304;9.536;2023-07-13T05:43:13;9.38;;;2.67;;
51806;SDS011;37865;51.304;9.536;2023-07-13T05:45:39;7.05;;;2.22;;
51806;SDS011;37865;51.304;9.536;2023-07-13T05:48:05;11.38;;;2.65;;
51806;SDS011;37865;51.304;9.536;2023-07-13T05:50:30;8.07;;;2.22;;
51806;SDS011;37865;51.304;9.536;2023-07-13T05:52:55;1.75;;;1.17;;
51806;SDS011;37865;51.304;9.536;2023-07-13T05:55:22;8.70;;;2.38;;
51806;SDS011;37865;51.304;9.536;2023-07-13T06:04:00;4.45;;;2.42;;
51806;SDS011;37865;51.304;9.536;2023-07-13T06:06:26;2.65;;;1.55;;
51806;SDS011;37865;51.304;9.536;2023-07-13T06:08:51;6.22;;;1.75;;
51806;SDS011;37865;51.304;9.536;2023-07-13T06:11:18;2.28;;;1.63;;
51806;SDS011;37865;51.304;9.536;2023-07-13T06:13:46;5.05;;;1.85;;
51806;SDS011;37865;51.304;9.536;2023-07-13T06:16:12;7.22;;;2.00;;
51806;SDS011;37865;51.304;9.536;2023-07-13T06:18:39;3.47;;;1.50;;
51806;SDS011;37865;51.304;9.536;2023-07-13T06:21:05;4.45;;;1.25;;
51806;SDS011;37865;51.304;9.536;2023-07-13T06:23:35;14.85;;;2.03;;
51806;SDS011;37865;51.304;9.536;2023-07-13T06:26:01;5.00;;;2.08;;
51806;SDS011;37865;51.304;9.536;2023-07-13T06:28:27;3.22;;;1.38;;
51806;SDS011;37865;51.304;9.536;2023-07-13T06:30:53;6.38;;;2.50;;
51806;SDS011;37865;51.304;9.536;2023-07-13T06:33:18;10.48;;;1.80;;
51806;SDS011;37865;51.304;9.536;2023-07-13T06:35:44;9.30;;;2.15;;
51806;SDS011;37865;51.304;9.536;2023-07-13T06:38:09;5.40;;;1.25;;
51806;SDS011;37865;51.304;9.536;2023-07-13T06:40:34;1.70;;;1.48;;
51806;SDS011;37865;51.304;9.536;2023-07-13T06:42:59;3.60;;;2.05;;
51806;SDS011;37865;51.304;9.536;2023-07-13T06:45:25;4.50;;;1.52;;
51806;SDS011;37865;51.304;9.536;2023-07-13T06:47:50;3.60;;;1.83;;
51806;SDS011;37865;51.304;9.536;2023-07-13T06:50:15;4.80;;;1.80;;
51806;SDS011;37865;51.304;9.536;2023-07-13T06:52:41;5.28;;;1.83;;
51806;SDS011;37865;51.304;9.536;2023-07-13T06:55:06;10.13;;;2.35;;
51806;SDS011;37865;51.304;9.536;2023-07-13T06:57:32;5.80;;;1.70;;
51806;SDS011;37865;51.304;9.536;2023-07-13T06:59:57;16.92;;;2.53;;
51806;SDS011;37865;51.304;9.536;2023-07-13T07:02:23;8.18;;;2.53;;
51806;SDS011;37865;51.304;9.536;2023-07-13T07:04:48;5.20;;;1.88;;
51806;SDS011;37865;51.304;9.536;2023-07-13T07:07:14;6.80;;;1.52;;
51806;SDS011;37865;51.304;9.536;2023-07-13T07:09:40;6.85;;;1.63;;
51806;SDS011;37865;51.304;9.536;2023-07-13T07:12:05;2.50;;;1.60;;
51806;SDS011;37865;51.304;9.536;2023-07-13T07:14:31;4.60;;;1.95;;
51806;SDS011;37865;51.304;9.536;2023-07-13T07:16:57;5.93;;;1.50;;
51806;SDS011;37865;51.304;9.536;2023-07-13T07:19:23;7.30;;;1.77;;
51806;SDS011;37865;51.304;9.536;2023-07-13T07:21:49;6.85;;;1.50;;
51806;SDS011;37865;51.304;9.536;2023-07-13T07:24:14;12.10;;;2.10;;
51806;SDS011;37865;51.304;9.536;2023-07-13T07:26:40;16.75;;;2.25;;
51806;SDS011;37865;51.304;9.536;2023-07-13T07:29:06;7.60;;;1.70;;
51806;SDS011;37865;51.304;9.536;2023-07-13T07:31:31;2.55;;;1.30;;
51806;SDS011;37865;51.304;9.536;2023-07-13T07:33:56;2.42;;;1.17;;
51806;SDS011;37865;51.304;9.536;2023-07-13T07:36:22;3.65;;;1.40;;
51806;SDS011;37865;51.304;9.536;2023-07-13T07:38:47;5.63;;;1.40;;
51806;SDS011;37865;51.304;9.536;2023-07-13T07:41:12;1.60;;;0.60;;
51806;SDS011;37865;51.304;9.536;2023-07-13T07:43:38;2.40;;;1.08;;
51806;SDS011;37865;51.304;9.536;2023-07-13T07:46:04;14.13;;;1.67;;
51806;SDS011;37865;51.304;9.536;2023-07-13T07:48:29;6.63;;;1.25;;
51806;SDS011;37865;51.304;9.536;2023-07-13T07:50:55;1.98;;;0.88;;
51806;SDS011;37865;51.304;9.536;2023-07-13T07:53:20;3.15;;;1.33;;
51806;SDS011;37865;51.304;9.536;2023-07-13T07:55:45;6.20;;;1.35;;
51806;SDS011;37865;51.304;9.536;2023-07-13T07:58:11;11.32;;;1.40;;
51806;SDS011;37865;51.304;9.536;2023-07-13T08:00:36;4.22;;;1.30;;
51806;SDS011;37865;51.304;9.536;2023-07-13T08:03:02;5.18;;;1.67;;
51806;SDS011;37865;51.304;9.536;2023-07-13T08:05:28;3.65;;;1.58;;
51806;SDS011;37865;51.304;9.536;2023-07-13T08:07:53;4.95;;;1.60;;
51806;SDS011;37865;51.304;9.536;2023-07-13T08:10:18;1.80;;;0.70;;
51806;SDS011;37865;51.304;9.536;2023-07-13T08:12:44;8.60;;;1.48;;
51806;SDS011;37865;51.304;9.536;2023-07-13T08:15:11;3.00;;;1.35;;
51806;SDS011;37865;51.304;9.536;2023-07-13T08:17:38;4.93;;;0.95;;
51806;SDS011;37865;51.304;9.536;2023-07-13T08:20:03;1.63;;;0.95;;
51806;SDS011;37865;51.304;9.536;2023-07-13T08:22:29;2.92;;;1.35;;
51806;SDS011;37865;51.304;9.536;2023-07-13T08:24:54;1.13;;;1.02;;
51806;SDS011;37865;51.304;9.536;2023-07-13T08:27:21;2.90;;;0.95;;
51806;SDS011;37865;51.304;9.536;2023-07-13T08:29:47;2.53;;;0.95;;
51806;SDS011;37865;51.304;9.536;2023-07-13T08:32:13;1.95;;;0.85;;
51806;SDS011;37865;51.304;9.536;2023-07-13T08:34:38;3.38;;;1.50;;
51806;SDS011;37865;51.304;9.536;2023-07-13T08:37:04;2.88;;;1.08;;
51806;SDS011;37865;51.304;9.536;2023-07-13T08:39:30;2.03;;;1.17;;
51806;SDS011;37865;51.304;9.536;2023-07-13T08:41:58;5.05;;;1.60;;
51806;SDS011;37865;51.304;9.536;2023-07-13T08:47:32;3.35;;;1.05;;
51806;SDS011;37865;51.304;9.536;2023-07-13T08:50:01;5.32;;;1.20;;
51806;SDS011;37865;51.304;9.536;2023-07-13T08:52:31;3.45;;;0.80;;
51806;SDS011;37865;51.304;9.536;2023-07-13T08:55:02;2.47;;;1.13;;
51806;SDS011;37865;51.304;9.536;2023-07-13T08:57:48;1.15;;;1.05;;
51806;SDS011;37865;51.304;9.536;2023-07-13T09:00:31;1.95;;;0.90;;
51806;SDS011;37865;51.304;9.536;2023-07-13T09:03:02;3.72;;;1.15;;
51806;SDS011;37865;51.304;9.536;2023-07-13T09:05:29;1.60;;;1.00;;
51806;SDS011;37865;51.304;9.536;2023-07-13T09:08:16;4.47;;;1.38;;
51806;SDS011;37865;51.304;9.536;2023-07-13T09:11:00;13.45;;;1.33;;
51806;SDS011;37865;51.304;9.536;2023-07-13T09:13:51;3.97;;;1.17;;
51806;SDS011;37865;51.304;9.536;2023-07-13T09:16:17;1.92;;;0.95;;
51806;SDS011;37865;51.304;9.536;2023-07-13T09:18:44;3.40;;;0.55;;
51806;SDS011;37865;51.304;9.536;2023-07-13T09:21:23;2.13;;;1.20;;
51806;SDS011;37865;51.304;9.536;2023-07-13T09:23:54;3.92;;;1.42;;
51806;SDS011;37865;51.304;9.536;2023-07-13T09:26:43;1.58;;;0.70;;
51806;SDS011;37865;51.304;9.536;2023-07-13T09:29:11;0.65;;;0.60;;
51806;SDS011;37865;51.304;9.536;2023-07-13T09:31:45;4.72;;;1.58;;
51806;SDS011;37865;51.304;9.536;2023-07-13T09:34:17;1.45;;;1.02;;
51806;SDS011;37865;51.304;9.536;2023-07-13T09:36:42;1.63;;;1.05;;
51806;SDS011;37865;51.304;9.536;2023-07-13T09:39:29;2.08;;;1.00;;
51806;SDS011;37865;51.304;9.536;2023-07-13T09:44:56;1.40;;;0.77;;
51806;SDS011;37865;51.304;9.536;2023-07-13T09:47:24;7.60;;;1.27;;
51806;SDS011;37865;51.304;9.536;2023-07-13T09:49:55;0.70;;;0.70;;
51806;SDS011;37865;51.304;9.536;2023-07-13T09:52:25;2.60;;;1.15;;
51806;SDS011;37865;51.304;9.536;2023-07-13T09:54:54;3.05;;;1.20;;
51806;SDS011;37865;51.304;9.536;2023-07-13T09:57:24;1.65;;;0.95;;
51806;SDS011;37865;51.304;9.536;2023-07-13T09:59:51;3.70;;;0.85;;
51806;SDS011;37865;51.304;9.536;2023-07-13T10:05:11;1.02;;;0.70;;
51806;SDS011;37865;51.304;9.536;2023-07-13T10:07:39;2.65;;;1.00;;
51806;SDS011;37865;51.304;9.536;2023-07-13T10:10:16;5.90;;;1.30;;
51806;SDS011;37865;51.304;9.536;2023-07-13T10:12:45;1.83;;;0.82;;
51806;SDS011;37865;51.304;9.536;2023-07-13T10:15:19;4.07;;;1.17;;
51806;SDS011;37865;51.304;9.536;2023-07-13T10:17:47;1.48;;;0.85;;
51806;SDS011;37865;51.304;9.536;2023-07-13T10:20:14;1.83;;;0.88;;
51806;SDS011;37865;51.304;9.536;2023-07-13T10:25:32;1.30;;;1.17;;
51806;SDS011;37865;51.304;9.536;2023-07-13T10:31:01;2.15;;;1.45;;
51806;SDS011;37865;51.304;9.536;2023-07-13T10:33:29;2.15;;;1.33;;
51806;SDS011;37865;51.304;9.536;2023-07-13T10:35:59;1.13;;;1.02;;
51806;SDS011;37865;51.304;9.536;2023-07-13T10:38:36;1.83;;;0.98;;
51806;SDS011;37865;51.304;9.536;2023-07-13T10:41:10;5.43;;;0.90;;
51806;SDS011;37865;51.304;9.536;2023-07-13T10:43:43;8.65;;;1.70;;
51806;SDS011;37865;51.304;9.536;2023-07-13T10:46:12;4.47;;;1.40;;
51806;SDS011;37865;51.304;9.536;2023-07-13T10:48:40;2.38;;;1.45;;
51806;SDS011;37865;51.304;9.536;2023-07-13T10:51:08;3.25;;;0.80;;
51806;SDS011;37865;51.304;9.536;2023-07-13T10:53:37;8.27;;;1.60;;
51806;SDS011;37865;51.304;9.536;2023-07-13T10:58:41;2.45;;;1.08;;
51806;SDS011;37865;51.304;9.536;2023-07-13T11:01:09;3.25;;;1.15;;
51806;SDS011;37865;51.304;9.536;2023-07-13T11:06:11;1.80;;;0.93;;
51806;SDS011;37865;51.304;9.536;2023-07-13T11:08:58;4.30;;;1.33;;
51806;SDS011;37865;51.304;9.536;2023-07-13T11:18:47;4.03;;;1.48;;
51806;SDS011;37865;51.304;9.536;2023-07-13T11:21:15;3.20;;;1.63;;
51806;SDS011;37865;51.304;9.536;2023-07-13T11:23:43;4.22;;;1.13;;
51806;SDS011;37865;51.304;9.536;2023-07-13T11:31:58;1.35;;;0.90;;
51806;SDS011;37865;51.304;9.536;2023-07-13T11:34:29;1.15;;;0.90;;
51806;SDS011;37865;51.304;9.536;2023-07-13T11:36:58;3.50;;;1.27;;
51806;SDS011;37865;51.304;9.536;2023-07-13T11:39:28;0.85;;;0.60;;
51806;SDS011;37865;51.304;9.536;2023-07-13T11:41:58;4.38;;;1.40;;
51806;SDS011;37865;51.304;9.536;2023-07-13T11:44:26;0.73;;;0.60;;
51806;SDS011;37865;51.304;9.536;2023-07-13T11:46:54;4.93;;;1.23;;
51806;SDS011;37865;51.304;9.536;2023-07-13T11:49:22;2.78;;;1.25;;
51806;SDS011;37865;51.304;9.536;2023-07-13T11:51:49;5.95;;;1.48;;
51806;SDS011;37865;51.304;9.536;2023-07-13T11:56:54;1.50;;;1.10;;
51806;SDS011;37865;51.304;9.536;2023-07-13T11:59:22;2.15;;;0.63;;
51806;SDS011;37865;51.304;9.536;2023-07-13T12:01:49;2.00;;;1.13;;
51806;SDS011;37865;51.304;9.536;2023-07-13T12:06:53;2.83;;;1.20;;
51806;SDS011;37865;51.304;9.536;2023-07-13T12:09:20;2.30;;;0.93;;
51806;SDS011;37865;51.304;9.536;2023-07-13T12:11:50;2.90;;;0.70;;
51806;SDS011;37865;51.304;9.536;2023-07-13T12:14:16;2.22;;;1.10;;
51806;SDS011;37865;51.304;9.536;2023-07-13T12:16:43;4.13;;;1.20;;
51806;SDS011;37865;51.304;9.536;2023-07-13T12:19:28;0.82;;;0.75;;
51806;SDS011;37865;51.304;9.536;2023-07-13T12:21:56;1.73;;;0.73;;
51806;SDS011;37865;51.304;9.536;2023-07-13T12:24:22;3.30;;;0.63;;
51806;SDS011;37865;51.304;9.536;2023-07-13T12:26:52;2.95;;;1.17;;
51806;SDS011;37865;51.304;9.536;2023-07-13T12:29:32;6.38;;;1.73;;
51806;SDS011;37865;51.304;9.536;2023-07-13T12:31:58;2.67;;;0.82;;
51806;SDS011;37865;51.304;9.536;2023-07-13T12:34:25;0.85;;;0.73;;
51806;SDS011;37865;51.304;9.536;2023-07-13T12:36:55;2.15;;;1.00;;
51806;SDS011;37865;51.304;9.536;2023-07-13T12:39:32;1.52;;;1.10;;
51806;SDS011;37865;51.304;9.536;2023-07-13T12:44:49;0.77;;;0.68;;
51806;SDS011;37865;51.304;9.536;2023-07-13T12:47:15;3.10;;;0.93;;
51806;SDS011;37865;51.304;9.536;2023-07-13T12:49:42;0.82;;;0.68;;
51806;SDS011;37865;51.304;9.536;2023-07-13T12:52:13;4.20;;;1.20;;
51806;SDS011;37865;51.304;9.536;2023-07-13T12:54:41;4.30;;;1.35;;
51806;SDS011;37865;51.304;9.536;2023-07-13T12:57:08;1.95;;;1.10;;
51806;SDS011;37865;51.304;9.536;2023-07-13T12:59:41;3.40;;;1.42;;
51806;SDS011;37865;51.304;9.536;2023-07-13T13:02:26;2.20;;;0.93;;
51806;SDS011;37865;51.304;9.536;2023-07-13T13:04:55;4.13;;;0.95;;
51806;SDS011;37865;51.304;9.536;2023-07-13T13:07:22;2.70;;;1.05;;
51806;SDS011;37865;51.304;9.536;2023-07-13T13:09:48;1.50;;;0.77;;
51806;SDS011;37865;51.304;9.536;2023-07-13T13:12:13;2.35;;;1.33;;
51806;SDS011;37865;51.304;9.536;2023-07-13T13:14:40;2.38;;;0.95;;
51806;SDS011;37865;51.304;9.536;2023-07-13T13:17:11;4.18;;;1.33;;
51806;SDS011;37865;51.304;9.536;2023-07-13T13:19:44;2.35;;;1.30;;
51806;SDS011;37865;51.304;9.536;2023-07-13T13:22:10;2.20;;;1.17;;
51806;SDS011;37865;51.304;9.536;2023-07-13T13:24:35;1.50;;;1.40;;
51806;SDS011;37865;51.304;9.536;2023-07-13T13:27:00;1.15;;;0.98;;
51806;SDS011;37865;51.304;9.536;2023-07-13T13:29:27;3.28;;;1.33;;
51806;SDS011;37865;51.304;9.536;2023-07-13T13:31:53;7.25;;;1.38;;
51806;SDS011;37865;51.304;9.536;2023-07-13T13:34:20;0.90;;;0.75;;
51806;SDS011;37865;51.304;9.536;2023-07-13T13:36:50;7.55;;;1.00;;
51806;SDS011;37865;51.304;9.536;2023-07-13T13:39:24;5.18;;;1.67;;
51806;SDS011;37865;51.304;9.536;2023-07-13T13:41:53;2.88;;;1.10;;
51806;SDS011;37865;51.304;9.536;2023-07-13T13:44:19;6.95;;;1.38;;
51806;SDS011;37865;51.304;9.536;2023-07-13T13:46:46;3.08;;;1.55;;
51806;SDS011;37865;51.304;9.536;2023-07-13T13:49:14;1.92;;;1.25;;
51806;SDS011;37865;51.304;9.536;2023-07-13T13:51:42;1.00;;;0.90;;
51806;SDS011;37865;51.304;9.536;2023-07-13T13:54:11;1.38;;;1.17;;
51806;SDS011;37865;51.304;9.536;2023-07-13T13:56:44;1.92;;;0.90;;
51806;SDS011;37865;51.304;9.536;2023-07-13T13:59:12;4.45;;;1.38;;
51806;SDS011;37865;51.304;9.536;2023-07-13T14:01:38;3.13;;;1.00;;
51806;SDS011;37865;51.304;9.536;2023-07-13T14:04:05;3.20;;;1.23;;
51806;SDS011;37865;51.304;9.536;2023-07-13T14:06:32;7.78;;;1.42;;
51806;SDS011;37865;51.304;9.536;2023-07-13T14:08:58;2.08;;;0.90;;
51806;SDS011;37865;51.304;9.536;2023-07-13T14:11:25;0.75;;;0.75;;
51806;SDS011;37865;51.304;9.536;2023-07-13T14:13:59;5.20;;;1.35;;
51806;SDS011;37865;51.304;9.536;2023-07-13T14:16:29;1.40;;;0.98;;
51806;SDS011;37865;51.304;9.536;2023-07-13T14:18:57;1.10;;;0.95;;
51806;SDS011;37865;51.304;9.536;2023-07-13T14:21:25;0.80;;;0.80;;
51806;SDS011;37865;51.304;9.536;2023-07-13T14:23:51;1.30;;;0.93;;
51806;SDS011;37865;51.304;9.536;2023-07-13T14:26:20;2.00;;;0.88;;
51806;SDS011;37865;51.304;9.536;2023-07-13T14:28:49;2.22;;;1.35;;
51806;SDS011;37865;51.304;9.536;2023-07-13T14:31:16;3.08;;;1.63;;
51806;SDS011;37865;51.304;9.536;2023-07-13T14:33:43;3.65;;;1.50;;
51806;SDS011;37865;51.304;9.536;2023-07-13T14:38:59;1.27;;;0.85;;
51806;SDS011;37865;51.304;9.536;2023-07-13T14:41:31;4.88;;;1.50;;
51806;SDS011;37865;51.304;9.536;2023-07-13T14:43:56;1.60;;;0.80;;
51806;SDS011;37865;51.304;9.536;2023-07-13T14:46:24;2.35;;;1.10;;
51806;SDS011;37865;51.304;9.536;2023-07-13T14:49:15;2.08;;;1.13;;
51806;SDS011;37865;51.304;9.536;2023-07-13T14:52:11;1.65;;;0.90;;
51806;SDS011;37865;51.304;9.536;2023-07-13T14:54:38;1.92;;;1.08;;
51806;SDS011;37865;51.304;9.536;2023-07-13T14:57:16;0.95;;;0.85;;
51806;SDS011;37865;51.304;9.536;2023-07-13T14:59:43;4.13;;;1.52;;
51806;SDS011;37865;51.304;9.536;2023-07-13T15:02:14;2.72;;;1.00;;
51806;SDS011;37865;51.304;9.536;2023-07-13T15:04:39;1.00;;;0.88;;
51806;SDS011;37865;51.304;9.536;2023-07-13T15:07:05;6.65;;;1.40;;
51806;SDS011;37865;51.304;9.536;2023-07-13T15:09:30;2.67;;;1.23;;
51806;SDS011;37865;51.304;9.536;2023-07-13T15:11:55;0.70;;;0.63;;
51806;SDS011;37865;51.304;9.536;2023-07-13T15:14:21;2.80;;;1.20;;
51806;SDS011;37865;51.304;9.536;2023-07-13T15:16:48;2.28;;;0.98;;
51806;SDS011;37865;51.304;9.536;2023-07-13T15:19:16;1.08;;;0.90;;
51806;SDS011;37865;51.304;9.536;2023-07-13T15:21:42;3.05;;;1.20;;
51806;SDS011;37865;51.304;9.536;2023-07-13T15:24:08;5.07;;;1.45;;
51806;SDS011;37865;51.304;9.536;2023-07-13T15:26:35;1.00;;;0.90;;
51806;SDS011;37865;51.304;9.536;2023-07-13T15:29:01;6.28;;;1.27;;
51806;SDS011;37865;51.304;9.536;2023-07-13T15:31:26;1.67;;;1.02;;
51806;SDS011;37865;51.304;9.536;2023-07-13T15:33:53;3.53;;;0.90;;
51806;SDS011;37865;51.304;9.536;2023-07-13T15:36:20;4.10;;;1.13;;
51806;SDS011;37865;51.304;9.536;2023-07-13T15:38:47;2.97;;;0.93;;
51806;SDS011;37865;51.304;9.536;2023-07-13T15:41:20;1.08;;;0.85;;
51806;SDS011;37865;51.304;9.536;2023-07-13T15:43:48;5.07;;;1.13;;